createdAt,value
2022-11-30T00:00:20.604Z,16.67
2022-11-30T00:02:49.444Z,18.52
2022-11-30T00:05:16.247Z,19.15
2022-11-30T00:07:42.952Z,18.15
2022-11-30T00:10:09.906Z,20.90
2022-11-30T00:12:36.497Z,20.45
2022-11-30T00:15:03.329Z,20.42
2022-11-30T00:17:30.024Z,19.17
2022-11-30T00:19:56.611Z,19.70
2022-11-30T00:22:23.266Z,19.33
2022-11-30T00:24:49.998Z,17.77
2022-11-30T00:27:16.578Z,18.25
2022-11-30T00:29:43.141Z,19.98
2022-11-30T00:32:09.778Z,17.67
2022-11-30T00:34:36.342Z,20.20
2022-11-30T00:37:02.919Z,22.30
2022-11-30T00:39:34.009Z,21.63
2022-11-30T00:42:02.017Z,18.77
2022-11-30T00:44:28.672Z,19.77
2022-11-30T00:46:55.382Z,18.90
2022-11-30T00:49:22.099Z,19.88
2022-11-30T00:51:48.771Z,19.90
2022-11-30T00:54:15.408Z,18.30
2022-11-30T00:56:41.984Z,19.63
2022-11-30T00:59:08.547Z,16.10
2022-11-30T01:01:35.789Z,18.65
2022-11-30T01:04:02.690Z,18.67
2022-11-30T01:06:29.263Z,18.38
2022-11-30T01:08:55.847Z,17.83
2022-11-30T01:11:26.129Z,17.13
2022-11-30T01:13:52.822Z,17.40
2022-11-30T01:16:22.053Z,21.92
2022-11-30T01:18:48.880Z,19.80
2022-11-30T01:21:17.493Z,21.38
2022-11-30T01:23:44.296Z,21.00
2022-11-30T01:26:11.048Z,19.35
2022-11-30T01:28:37.653Z,21.42
2022-11-30T01:31:05.653Z,19.85
2022-11-30T01:33:32.977Z,20.65
2022-11-30T01:36:01.021Z,19.98
2022-11-30T01:38:31.170Z,21.27
2022-11-30T01:40:57.771Z,20.08
2022-11-30T01:43:37.619Z,22.67
2022-11-30T01:46:04.485Z,20.98
2022-11-30T01:48:31.125Z,20.42
2022-11-30T01:50:57.710Z,21.50
2022-11-30T01:53:24.513Z,21.60
2022-11-30T01:55:51.106Z,22.02
2022-11-30T01:58:20.775Z,21.60
2022-11-30T02:00:47.770Z,23.17
2022-11-30T02:03:22.540Z,20.88
2022-11-30T02:05:49.179Z,20.35
2022-11-30T02:08:15.944Z,20.73
2022-11-30T02:10:45.191Z,21.23
2022-11-30T02:13:35.153Z,22.95
2022-11-30T02:16:27.021Z,22.23
2022-11-30T02:22:12.303Z,21.73
2022-11-30T02:25:05.514Z,21.98
2022-11-30T02:30:20.568Z,21.50
2022-11-30T02:33:07.869Z,24.52
2022-11-30T02:35:36.489Z,24.38
2022-11-30T02:38:03.699Z,24.58
2022-11-30T02:40:30.308Z,23.98
2022-11-30T02:42:57.950Z,25.13
2022-11-30T02:45:38.361Z,22.00
2022-11-30T02:48:07.986Z,23.02
2022-11-30T02:50:41.685Z,21.63
2022-11-30T02:53:08.908Z,24.83
2022-11-30T02:55:35.550Z,21.17
2022-11-30T02:58:02.246Z,22.50
2022-11-30T03:00:28.855Z,21.63
2022-11-30T03:02:55.538Z,22.08
2022-11-30T03:05:22.248Z,20.98
2022-11-30T03:07:48.888Z,18.10
2022-11-30T03:10:15.638Z,21.50
2022-11-30T03:12:42.274Z,21.75
2022-11-30T03:15:09.307Z,21.05
2022-11-30T03:17:35.905Z,17.45
2022-11-30T03:20:02.544Z,14.90
2022-11-30T03:22:29.131Z,16.40
2022-11-30T03:24:55.851Z,17.65
2022-11-30T03:27:22.830Z,17.50
2022-11-30T03:29:49.414Z,17.05
2022-11-30T03:32:16.043Z,18.35
2022-11-30T03:34:42.662Z,21.02
2022-11-30T03:37:09.252Z,19.80
2022-11-30T03:39:35.840Z,20.45
2022-11-30T03:42:02.493Z,21.75
2022-11-30T03:44:29.862Z,20.17
2022-11-30T03:46:56.480Z,18.55
2022-11-30T03:49:23.092Z,20.52
2022-11-30T03:51:49.732Z,20.58
2022-11-30T03:54:16.321Z,18.75
2022-11-30T03:56:42.922Z,18.67
2022-11-30T03:59:09.602Z,18.75
2022-11-30T04:01:36.902Z,17.88
2022-11-30T04:04:03.998Z,18.88
2022-11-30T04:06:30.573Z,18.10
2022-11-30T04:08:57.142Z,20.88
2022-11-30T04:11:23.717Z,19.83
2022-11-30T04:13:50.402Z,20.98
2022-11-30T04:16:17.028Z,22.08
2022-11-30T04:18:43.682Z,19.90
2022-11-30T04:21:10.661Z,20.73
2022-11-30T04:23:38.522Z,20.60
2022-11-30T04:26:07.471Z,19.98
2022-11-30T04:28:34.395Z,19.33
2022-11-30T04:31:01.540Z,21.30
2022-11-30T04:33:28.389Z,20.05
2022-11-30T04:35:56.638Z,21.02
2022-11-30T04:38:23.784Z,19.75
2022-11-30T04:40:50.442Z,19.75
2022-11-30T04:43:17.077Z,19.45
2022-11-30T04:45:44.593Z,19.52
2022-11-30T04:48:11.188Z,19.77
2022-11-30T04:50:37.880Z,17.67
2022-11-30T04:53:04.555Z,21.05
2022-11-30T04:55:31.388Z,19.27
2022-11-30T04:57:58.035Z,18.35
2022-11-30T05:00:24.750Z,20.88
2022-11-30T05:02:53.083Z,18.83
2022-11-30T05:05:20.140Z,20.23
2022-11-30T05:07:50.651Z,17.58
2022-11-30T05:10:17.346Z,18.83
2022-11-30T05:12:43.945Z,19.92
2022-11-30T05:15:10.790Z,18.42
2022-11-30T05:17:37.389Z,21.23
2022-11-30T05:20:04.261Z,19.27
2022-11-30T05:22:30.888Z,18.08
2022-11-30T05:24:57.429Z,19.48
2022-11-30T05:27:24.035Z,20.33
2022-11-30T05:29:50.621Z,18.38
2022-11-30T05:32:17.210Z,19.13
2022-11-30T05:34:50.701Z,16.55
2022-11-30T05:37:18.357Z,19.23
2022-11-30T05:39:44.943Z,17.20
2022-11-30T05:42:11.507Z,16.17
2022-11-30T05:44:38.096Z,16.30
2022-11-30T05:47:04.862Z,17.55
2022-11-30T05:49:31.489Z,16.13
2022-11-30T05:51:58.062Z,18.10
2022-11-30T05:54:24.678Z,17.35
2022-11-30T05:56:54.628Z,18.25
2022-11-30T05:59:22.225Z,16.42
2022-11-30T06:01:49.195Z,18.00
2022-11-30T06:04:15.863Z,16.48
2022-11-30T06:06:42.492Z,17.38
2022-11-30T06:09:09.246Z,16.77
2022-11-30T06:11:35.916Z,16.27
2022-11-30T06:14:02.509Z,16.80
2022-11-30T06:16:29.177Z,15.40
2022-11-30T06:18:55.864Z,16.85
2022-11-30T06:21:24.618Z,15.55
2022-11-30T06:23:52.283Z,15.15
2022-11-30T06:26:18.884Z,14.95
2022-11-30T06:28:48.524Z,15.90
2022-11-30T06:31:15.802Z,15.95
2022-11-30T06:33:42.547Z,14.88
2022-11-30T06:36:09.445Z,14.77
2022-11-30T06:38:36.055Z,15.65
2022-11-30T06:41:04.830Z,17.42
2022-11-30T06:43:34.197Z,17.73
2022-11-30T06:46:01.338Z,15.18
2022-11-30T06:48:27.985Z,12.90
2022-11-30T06:50:55.037Z,14.65
2022-11-30T06:53:21.756Z,13.43
2022-11-30T06:55:48.389Z,15.52
2022-11-30T06:58:14.968Z,14.88
2022-11-30T07:00:42.713Z,14.60
2022-11-30T07:03:10.576Z,14.82
2022-11-30T07:05:43.405Z,15.90
2022-11-30T07:08:11.288Z,15.70
2022-11-30T07:10:41.358Z,14.73
2022-11-30T07:13:17.042Z,15.52
2022-11-30T07:15:43.892Z,12.85
2022-11-30T07:18:10.790Z,13.57
2022-11-30T07:20:37.875Z,12.95
2022-11-30T07:23:24.770Z,13.10
2022-11-30T07:26:06.838Z,14.48
2022-11-30T07:28:36.172Z,14.73
2022-11-30T07:31:19.400Z,12.68
2022-11-30T07:33:46.697Z,14.02
2022-11-30T07:36:13.395Z,14.60
2022-11-30T07:38:40.322Z,14.95
2022-11-30T07:41:07.080Z,16.10
2022-11-30T07:43:33.769Z,18.17
2022-11-30T07:46:00.746Z,16.48
2022-11-30T07:48:27.629Z,17.25
2022-11-30T07:50:54.330Z,18.48
2022-11-30T07:53:21.063Z,16.00
2022-11-30T07:55:50.538Z,17.45
2022-11-30T07:58:19.563Z,17.23
2022-11-30T08:00:46.362Z,16.17
2022-11-30T08:03:13.489Z,17.55
2022-11-30T08:05:40.126Z,17.17
2022-11-30T08:08:06.858Z,16.88
2022-11-30T08:10:33.485Z,15.85
2022-11-30T08:13:00.125Z,16.42
2022-11-30T08:15:32.514Z,17.33
2022-11-30T08:18:05.210Z,16.40
2022-11-30T08:20:31.787Z,16.92
2022-11-30T08:22:58.640Z,17.55
2022-11-30T08:25:25.281Z,17.42
2022-11-30T08:27:51.885Z,16.83
2022-11-30T08:30:20.812Z,18.10
2022-11-30T08:32:47.457Z,17.85
2022-11-30T08:35:14.055Z,16.60
2022-11-30T08:37:40.689Z,18.02
2022-11-30T08:40:07.760Z,18.60
2022-11-30T08:42:34.409Z,18.08
2022-11-30T08:45:01.351Z,18.95
2022-11-30T08:47:30.333Z,17.48
2022-11-30T08:49:57.787Z,16.08
2022-11-30T08:52:24.586Z,18.88
2022-11-30T08:54:51.685Z,18.35
2022-11-30T08:57:20.270Z,17.90
2022-11-30T08:59:47.044Z,18.10
2022-11-30T09:02:17.831Z,17.05
2022-11-30T09:04:45.628Z,15.77
2022-11-30T09:07:12.230Z,16.67
2022-11-30T09:09:39.097Z,16.15
2022-11-30T09:12:06.781Z,16.90
2022-11-30T09:14:33.595Z,14.43
2022-11-30T09:17:00.242Z,16.25
2022-11-30T09:19:26.877Z,17.33
2022-11-30T09:21:53.480Z,18.25
2022-11-30T09:24:20.743Z,23.40
2022-11-30T09:26:47.632Z,14.82
2022-11-30T09:29:14.208Z,16.50
2022-11-30T09:31:40.816Z,17.20
2022-11-30T09:34:07.422Z,17.05
2022-11-30T09:36:36.528Z,19.30
2022-11-30T09:39:03.132Z,17.17
2022-11-30T09:45:02.532Z,17.52
2022-11-30T09:47:55.229Z,18.35
2022-11-30T09:50:23.492Z,15.63
2022-11-30T09:52:55.471Z,15.98
2022-11-30T09:55:27.911Z,17.63
2022-11-30T09:57:56.855Z,14.98
2022-11-30T10:00:24.099Z,15.25
2022-11-30T10:02:51.683Z,16.25
2022-11-30T10:05:21.068Z,15.70
2022-11-30T10:08:12.221Z,14.65
2022-11-30T10:10:56.013Z,14.45
2022-11-30T10:13:43.909Z,14.15
2022-11-30T10:16:35.284Z,16.42
2022-11-30T10:19:41.710Z,13.82
2022-11-30T10:22:31.934Z,14.48
2022-11-30T10:25:23.470Z,16.52
2022-11-30T10:27:53.176Z,15.00
2022-11-30T10:30:22.707Z,13.73
2022-11-30T10:32:53.240Z,15.95
2022-11-30T10:35:41.584Z,16.40
2022-11-30T10:38:21.750Z,14.70
2022-11-30T10:40:54.332Z,15.20
2022-11-30T10:45:56.120Z,15.13
2022-11-30T10:48:41.616Z,15.35
2022-11-30T10:51:08.334Z,13.48
2022-11-30T10:53:35.066Z,14.32
2022-11-30T10:56:10.948Z,14.05
2022-11-30T10:58:58.944Z,14.20
2022-11-30T11:01:30.907Z,13.68
2022-11-30T11:06:57.832Z,12.43
2022-11-30T11:09:37.343Z,12.52
2022-11-30T11:12:25.384Z,12.20
2022-11-30T11:15:17.457Z,13.02
2022-11-30T11:17:44.112Z,10.60
2022-11-30T11:20:34.771Z,12.00
2022-11-30T11:23:02.903Z,11.65
2022-11-30T11:25:34.805Z,10.63
2022-11-30T11:28:08.853Z,10.82
2022-11-30T11:30:36.146Z,11.85
2022-11-30T11:33:15.950Z,11.48
2022-11-30T11:35:51.326Z,11.02
2022-11-30T11:38:45.787Z,9.70
2022-11-30T11:41:33.452Z,10.50
2022-11-30T11:44:21.630Z,9.65
2022-11-30T11:46:58.034Z,10.40
2022-11-30T11:49:28.573Z,12.68
2022-11-30T11:52:15.886Z,13.90
2022-11-30T11:54:47.436Z,15.73
2022-11-30T11:57:17.224Z,11.82
2022-11-30T11:59:57.199Z,13.27
2022-11-30T12:02:32.487Z,13.23
2022-11-30T12:05:36.755Z,12.00
2022-11-30T12:08:22.319Z,13.05
2022-11-30T12:11:09.928Z,14.30
2022-11-30T12:13:39.048Z,15.65
2022-11-30T12:16:20.241Z,15.50
2022-11-30T12:18:58.675Z,14.38
2022-11-30T12:21:52.413Z,17.63
2022-11-30T12:24:53.435Z,15.80
2022-11-30T12:27:39.958Z,14.73
2022-11-30T12:30:33.141Z,16.70
2022-11-30T12:33:11.806Z,16.40
2022-11-30T12:36:00.383Z,15.93
2022-11-30T12:38:49.160Z,16.75
2022-11-30T12:44:22.223Z,17.77
2022-11-30T12:47:28.952Z,15.27
2022-11-30T12:50:25.425Z,16.67
2022-11-30T12:53:29.936Z,15.60
2022-11-30T12:59:17.376Z,15.25
2022-11-30T13:02:13.903Z,13.38
2022-11-30T13:04:46.637Z,15.30
2022-11-30T13:10:18.028Z,15.20
2022-11-30T13:12:45.833Z,13.13
2022-11-30T13:15:16.651Z,12.73
2022-11-30T13:17:44.017Z,13.90
2022-11-30T13:20:48.543Z,15.10
2022-11-30T13:23:38.907Z,14.93
2022-11-30T13:26:42.898Z,12.65
2022-11-30T13:29:49.692Z,13.82
2022-11-30T13:32:56.292Z,12.82
2022-11-30T13:35:32.867Z,14.10
2022-11-30T13:41:04.279Z,13.20
2022-11-30T13:43:34.137Z,12.38
2022-11-30T13:46:21.104Z,11.77
2022-11-30T13:48:47.876Z,12.65
2022-11-30T13:51:34.864Z,13.57
2022-11-30T13:54:37.389Z,13.05
2022-11-30T13:57:15.237Z,15.10
2022-11-30T13:59:48.331Z,12.60
2022-11-30T14:05:46.692Z,14.32
2022-11-30T14:08:30.554Z,13.15
2022-11-30T14:13:54.115Z,13.63
2022-11-30T14:16:22.862Z,15.75
2022-11-30T14:18:49.629Z,14.80
2022-11-30T14:21:31.341Z,15.18
2022-11-30T14:24:01.278Z,14.55
2022-11-30T14:26:31.065Z,14.25
2022-11-30T14:29:16.830Z,15.32
2022-11-30T14:32:08.447Z,15.73
2022-11-30T14:34:51.394Z,17.15
2022-11-30T14:37:26.561Z,16.48
2022-11-30T14:39:56.478Z,16.35
2022-11-30T14:42:24.894Z,16.13
2022-11-30T14:44:51.590Z,18.15
2022-11-30T14:47:30.915Z,18.23
2022-11-30T14:49:58.475Z,18.17
2022-11-30T14:53:03.940Z,17.90
2022-11-30T14:55:39.988Z,19.17
2022-11-30T15:01:03.693Z,22.02
2022-11-30T15:03:37.357Z,18.00
2022-11-30T15:06:07.058Z,20.60
2022-11-30T15:08:36.866Z,20.27
2022-11-30T15:11:05.259Z,19.10
2022-11-30T15:13:31.896Z,19.85
2022-11-30T15:15:58.508Z,22.50
2022-11-30T15:18:25.595Z,19.10
2022-11-30T15:21:02.144Z,19.70
2022-11-30T15:23:28.941Z,17.60
2022-11-30T15:25:59.328Z,19.80
2022-11-30T15:28:31.233Z,16.92
2022-11-30T15:30:58.711Z,19.05
2022-11-30T15:33:29.016Z,16.65
2022-11-30T15:38:43.264Z,19.55
2022-11-30T15:41:18.431Z,20.77
2022-11-30T15:43:47.339Z,19.30
2022-11-30T15:46:37.742Z,16.95
2022-11-30T15:49:28.719Z,17.65
2022-11-30T15:52:19.308Z,17.67
2022-11-30T15:54:52.631Z,18.80
2022-11-30T15:57:19.787Z,20.17
2022-11-30T16:00:07.950Z,19.77
2022-11-30T16:02:35.971Z,18.35
2022-11-30T16:05:09.574Z,19.17
2022-11-30T16:07:55.705Z,18.02
2022-11-30T16:10:24.950Z,15.80
2022-11-30T16:12:52.500Z,19.85
2022-11-30T16:15:28.182Z,20.50
2022-11-30T16:18:00.246Z,20.75
2022-11-30T16:20:26.797Z,19.88
2022-11-30T16:22:53.509Z,20.63
2022-11-30T16:25:22.370Z,21.00
2022-11-30T16:27:49.236Z,18.52
2022-11-30T16:30:18.445Z,20.08
2022-11-30T16:32:45.210Z,19.10
2022-11-30T16:35:18.354Z,17.40
2022-11-30T16:37:44.956Z,20.20
2022-11-30T16:40:13.435Z,19.67
2022-11-30T16:42:40.526Z,21.00
2022-11-30T16:45:16.029Z,20.92
2022-11-30T16:47:43.558Z,19.63
2022-11-30T16:50:11.698Z,20.52
2022-11-30T16:52:39.016Z,19.38
2022-11-30T16:55:15.362Z,17.65
2022-11-30T16:57:42.160Z,19.48
2022-11-30T17:00:10.292Z,19.67
2022-11-30T17:02:38.698Z,19.38
2022-11-30T17:05:06.277Z,18.33
2022-11-30T17:07:33.761Z,20.17
2022-11-30T17:10:00.418Z,21.00
2022-11-30T17:12:27.052Z,18.35
2022-11-30T17:14:53.673Z,17.20
2022-11-30T17:17:20.339Z,17.13
2022-11-30T17:19:47.075Z,19.38
2022-11-30T17:22:13.712Z,18.92
2022-11-30T17:24:40.420Z,18.27
2022-11-30T17:27:07.081Z,19.38
2022-11-30T17:29:33.721Z,16.60
2022-11-30T17:32:00.432Z,19.25
2022-11-30T17:34:27.148Z,18.60
2022-11-30T17:36:56.278Z,17.83
2022-11-30T17:39:23.575Z,20.55
2022-11-30T17:41:50.359Z,15.90
2022-11-30T17:44:17.555Z,17.23
2022-11-30T17:46:48.032Z,15.18
2022-11-30T17:49:15.162Z,16.67
2022-11-30T17:51:41.823Z,17.83
2022-11-30T17:54:08.550Z,17.90
2022-11-30T17:56:35.832Z,20.25
2022-11-30T17:59:02.650Z,19.30
2022-11-30T18:01:29.506Z,18.48
2022-11-30T18:03:56.498Z,17.08
2022-11-30T18:06:23.188Z,18.40
2022-11-30T18:08:49.923Z,19.35
2022-11-30T18:11:20.038Z,19.05
2022-11-30T18:13:47.565Z,17.67
2022-11-30T18:16:17.493Z,20.33
2022-11-30T18:18:47.717Z,18.92
2022-11-30T18:21:17.994Z,20.60
2022-11-30T18:23:44.714Z,20.08
2022-11-30T18:26:12.650Z,19.92
2022-11-30T18:28:39.366Z,19.40
2022-11-30T18:31:06.686Z,20.23
2022-11-30T18:33:34.328Z,18.55
2022-11-30T18:36:01.121Z,19.80
2022-11-30T18:38:30.534Z,20.25
2022-11-30T18:40:59.478Z,18.97
2022-11-30T18:43:26.172Z,20.50
2022-11-30T18:45:52.992Z,20.20
2022-11-30T18:48:19.726Z,18.73
2022-11-30T18:50:46.435Z,22.30
2022-11-30T18:53:18.107Z,19.73
2022-11-30T18:55:45.124Z,20.38
2022-11-30T18:58:11.786Z,21.35
2022-11-30T19:00:38.414Z,19.38
2022-11-30T19:03:05.244Z,20.10
2022-11-30T19:05:31.901Z,19.58
2022-11-30T19:08:00.146Z,19.55
2022-11-30T19:10:26.843Z,18.83
2022-11-30T19:12:53.466Z,22.05
2022-11-30T19:15:20.395Z,21.38
2022-11-30T19:17:46.992Z,20.77
2022-11-30T19:20:14.149Z,20.30
2022-11-30T19:22:40.753Z,21.10
2022-11-30T19:25:08.829Z,20.30
2022-11-30T19:27:36.053Z,21.10
2022-11-30T19:30:05.789Z,21.20
2022-11-30T19:32:33.255Z,19.92
2022-11-30T19:34:59.909Z,25.15
2022-11-30T19:37:26.514Z,21.73
2022-11-30T19:39:53.146Z,22.23
2022-11-30T19:42:19.746Z,21.65
2022-11-30T19:44:46.832Z,19.40
2022-11-30T19:47:13.723Z,19.88
2022-11-30T19:49:40.394Z,20.25
2022-11-30T19:52:06.958Z,20.83
2022-11-30T19:54:33.736Z,20.30
2022-11-30T19:57:00.330Z,20.83
2022-11-30T19:59:26.906Z,21.95
2022-11-30T20:01:53.553Z,22.80
2022-11-30T20:04:20.258Z,22.70
2022-11-30T20:06:46.840Z,22.63
2022-11-30T20:09:13.455Z,21.13
2022-11-30T20:11:40.120Z,21.23
2022-11-30T20:14:06.764Z,20.92
2022-11-30T20:16:33.531Z,20.77
2022-11-30T20:19:01.032Z,21.95
2022-11-30T20:21:29.336Z,21.58
2022-11-30T20:23:59.640Z,22.45
2022-11-30T20:26:30.196Z,23.23
2022-11-30T20:28:57.099Z,19.25
2022-11-30T20:31:24.151Z,22.25
2022-11-30T20:33:51.016Z,20.40
2022-11-30T20:36:18.216Z,20.25
2022-11-30T20:38:44.845Z,19.77
2022-11-30T20:41:12.761Z,24.08
2022-11-30T20:43:39.391Z,23.65
2022-11-30T20:46:14.271Z,22.08
2022-11-30T20:48:40.987Z,21.33
2022-11-30T20:53:57.151Z,22.45
2022-11-30T20:56:24.064Z,21.67
2022-11-30T20:58:50.689Z,23.35
2022-11-30T21:01:19.237Z,21.85
2022-11-30T21:03:46.552Z,24.15
2022-11-30T21:06:13.341Z,24.77
2022-11-30T21:08:40.138Z,22.80
2022-11-30T21:11:14.708Z,23.80
2022-11-30T21:13:41.708Z,21.75
2022-11-30T21:16:08.534Z,23.63
2022-11-30T21:18:35.722Z,22.85
2022-11-30T21:21:03.886Z,24.05
2022-11-30T21:23:30.634Z,22.05
2022-11-30T21:26:02.270Z,23.27
2022-11-30T21:28:32.322Z,22.40
2022-11-30T21:33:29.774Z,21.50
2022-11-30T21:35:56.521Z,22.98
2022-11-30T21:38:23.087Z,24.05
2022-11-30T21:40:58.083Z,25.83
2022-11-30T21:43:24.770Z,21.67
2022-11-30T21:45:59.569Z,23.10
2022-11-30T21:48:28.253Z,20.58
2022-11-30T21:51:03.611Z,23.52
2022-11-30T21:53:30.364Z,24.08
2022-11-30T21:56:02.301Z,23.83
2022-11-30T21:58:30.444Z,24.27
2022-11-30T22:00:57.391Z,22.15
2022-11-30T22:03:24.800Z,24.67
2022-11-30T22:06:08.372Z,21.55
2022-11-30T22:08:35.067Z,24.45
2022-11-30T22:11:03.394Z,22.45
2022-11-30T22:13:30.345Z,22.10
2022-11-30T22:15:59.050Z,22.60
2022-11-30T22:18:25.740Z,21.42
2022-11-30T22:20:52.354Z,22.80
2022-11-30T22:23:18.967Z,22.27
2022-11-30T22:25:45.749Z,20.83
2022-11-30T22:28:12.345Z,21.45
2022-11-30T22:30:38.927Z,22.58
2022-11-30T22:33:05.510Z,22.80
2022-11-30T22:35:32.100Z,23.02
2022-11-30T22:37:58.681Z,22.02
2022-11-30T22:40:25.300Z,20.63
2022-11-30T22:42:51.881Z,20.83
2022-11-30T22:45:18.566Z,21.83
2022-11-30T22:47:45.140Z,23.60
2022-11-30T22:50:12.120Z,23.75
2022-11-30T22:53:01.912Z,24.02
2022-11-30T22:55:25.483Z,24.25
2022-11-30T22:57:52.983Z,24.30
2022-11-30T23:00:19.714Z,24.75
2022-11-30T23:02:48.796Z,25.10
2022-11-30T23:05:15.413Z,24.13
2022-11-30T23:07:42.035Z,24.17
2022-11-30T23:10:09.308Z,25.48
2022-11-30T23:12:58.650Z,23.27
2022-11-30T23:15:22.468Z,25.50
2022-11-30T23:17:49.114Z,28.25
2022-11-30T23:20:15.676Z,26.60
2022-11-30T23:22:42.208Z,28.50
2022-11-30T23:25:09.069Z,30.30
2022-11-30T23:27:35.726Z,27.38
2022-11-30T23:30:02.564Z,27.98
2022-11-30T23:32:29.137Z,26.48
2022-11-30T23:34:55.725Z,28.52
2022-11-30T23:37:22.324Z,27.23
2022-11-30T23:39:49.117Z,28.52
2022-11-30T23:42:15.866Z,25.23
2022-11-30T23:44:42.436Z,26.50
2022-11-30T23:47:11.200Z,29.27
2022-11-30T23:49:39.615Z,28.55
2022-11-30T23:52:06.225Z,26.00
2022-11-30T23:54:32.833Z,28.33
2022-11-30T23:56:59.427Z,28.27
2022-11-30T23:59:26.039Z,28.60
